sensor_id;sensor_type;location;lat;lon;timestamp;P1;durP1;ratioP1;P2;durP2;ratioP2
73331;SDS011;61560;33.718;73.040;2022-09-06T00:00:35;8.00;;;5.20;;
73331;SDS011;61560;33.718;73.040;2022-09-06T00:03:04;8.25;;;5.15;;
73331;SDS011;61560;33.718;73.040;2022-09-06T00:05:31;8.73;;;5.20;;
73331;SDS011;61560;33.718;73.040;2022-09-06T00:08:00;8.32;;;4.80;;
73331;SDS011;61560;33.718;73.040;2022-09-06T00:10:28;8.88;;;4.93;;
73331;SDS011;61560;33.718;73.040;2022-09-06T00:12:59;8.27;;;4.90;;
73331;SDS011;61560;33.718;73.040;2022-09-06T00:15:26;7.38;;;4.72;;
73331;SDS011;61560;33.718;73.040;2022-09-06T00:17:53;8.68;;;4.95;;
73331;SDS011;61560;33.718;73.040;2022-09-06T00:20:19;8.02;;;4.78;;
73331;SDS011;61560;33.718;73.040;2022-09-06T00:22:46;7.38;;;4.82;;
73331;SDS011;61560;33.718;73.040;2022-09-06T00:25:12;8.93;;;5.22;;
73331;SDS011;61560;33.718;73.040;2022-09-06T00:27:39;7.93;;;4.63;;
73331;SDS011;61560;33.718;73.040;2022-09-06T00:30:05;8.30;;;5.05;;
73331;SDS011;61560;33.718;73.040;2022-09-06T00:32:32;8.40;;;4.88;;
73331;SDS011;61560;33.718;73.040;2022-09-06T00:34:59;7.57;;;4.82;;
73331;SDS011;61560;33.718;73.040;2022-09-06T00:37:25;10.23;;;5.00;;
73331;SDS011;61560;33.718;73.040;2022-09-06T00:39:52;9.65;;;4.85;;
73331;SDS011;61560;33.718;73.040;2022-09-06T00:42:18;10.68;;;4.80;;
73331;SDS011;61560;33.718;73.040;2022-09-06T00:44:45;7.65;;;4.47;;
73331;SDS011;61560;33.718;73.040;2022-09-06T00:47:12;6.18;;;4.22;;
73331;SDS011;61560;33.718;73.040;2022-09-06T00:49:46;7.60;;;4.22;;
73331;SDS011;61560;33.718;73.040;2022-09-06T00:52:16;7.32;;;4.90;;
73331;SDS011;61560;33.718;73.040;2022-09-06T00:54:44;7.70;;;4.65;;
73331;SDS011;61560;33.718;73.040;2022-09-06T01:00:04;10.50;;;4.90;;
73331;SDS011;61560;33.718;73.040;2022-09-06T01:02:34;8.10;;;4.57;;
73331;SDS011;61560;33.718;73.040;2022-09-06T01:05:00;8.75;;;4.82;;
73331;SDS011;61560;33.718;73.040;2022-09-06T01:10:02;10.00;;;4.82;;
73331;SDS011;61560;33.718;73.040;2022-09-06T01:13:12;6.55;;;4.75;;
73331;SDS011;61560;33.718;73.040;2022-09-06T01:16:09;8.30;;;5.30;;
73331;SDS011;61560;33.718;73.040;2022-09-06T01:22:08;6.47;;;4.97;;
73331;SDS011;61560;33.718;73.040;2022-09-06T01:30:32;9.05;;;4.70;;
73331;SDS011;61560;33.718;73.040;2022-09-06T01:33:12;9.07;;;5.65;;
73331;SDS011;61560;33.718;73.040;2022-09-06T01:35:49;6.65;;;4.85;;
73331;SDS011;61560;33.718;73.040;2022-09-06T01:38:22;10.30;;;5.90;;
73331;SDS011;61560;33.718;73.040;2022-09-06T01:40:48;7.55;;;4.90;;
73331;SDS011;61560;33.718;73.040;2022-09-06T01:43:19;10.18;;;6.05;;
73331;SDS011;61560;33.718;73.040;2022-09-06T02:00:07;15.30;;;7.30;;
73331;SDS011;61560;33.718;73.040;2022-09-06T02:03:00;10.13;;;6.53;;
73331;SDS011;61560;33.718;73.040;2022-09-06T02:05:57;10.63;;;5.80;;
73331;SDS011;61560;33.718;73.040;2022-09-06T02:08:36;10.88;;;5.78;;
73331;SDS011;61560;33.718;73.040;2022-09-06T02:11:07;12.10;;;5.82;;
73331;SDS011;61560;33.718;73.040;2022-09-06T02:13:37;13.07;;;6.38;;
73331;SDS011;61560;33.718;73.040;2022-09-06T02:16:08;9.02;;;5.97;;
73331;SDS011;61560;33.718;73.040;2022-09-06T02:18:48;11.15;;;5.82;;
73331;SDS011;61560;33.718;73.040;2022-09-06T02:21:25;10.52;;;6.53;;
73331;SDS011;61560;33.718;73.040;2022-09-06T02:23:58;11.88;;;5.80;;
73331;SDS011;61560;33.718;73.040;2022-09-06T02:26:31;9.65;;;5.82;;
73331;SDS011;61560;33.718;73.040;2022-09-06T02:29:03;9.38;;;6.13;;
73331;SDS011;61560;33.718;73.040;2022-09-06T02:31:37;9.48;;;5.85;;
73331;SDS011;61560;33.718;73.040;2022-09-06T02:34:16;9.45;;;5.78;;
73331;SDS011;61560;33.718;73.040;2022-09-06T02:36:44;9.02;;;6.03;;
73331;SDS011;61560;33.718;73.040;2022-09-06T02:39:11;9.15;;;5.68;;
73331;SDS011;61560;33.718;73.040;2022-09-06T02:41:41;8.85;;;6.18;;
73331;SDS011;61560;33.718;73.040;2022-09-06T02:44:10;9.43;;;5.68;;
73331;SDS011;61560;33.718;73.040;2022-09-06T02:46:37;9.60;;;6.38;;
73331;SDS011;61560;33.718;73.040;2022-09-06T02:49:03;10.30;;;6.43;;
73331;SDS011;61560;33.718;73.040;2022-09-06T02:51:30;10.90;;;6.05;;
73331;SDS011;61560;33.718;73.040;2022-09-06T02:54:04;8.95;;;6.22;;
73331;SDS011;61560;33.718;73.040;2022-09-06T02:56:31;11.57;;;5.70;;
73331;SDS011;61560;33.718;73.040;2022-09-06T02:58:59;9.82;;;5.90;;
73331;SDS011;61560;33.718;73.040;2022-09-06T03:01:25;14.55;;;6.85;;
73331;SDS011;61560;33.718;73.040;2022-09-06T03:03:52;10.00;;;6.32;;
73331;SDS011;61560;33.718;73.040;2022-09-06T03:06:19;10.32;;;5.70;;
73331;SDS011;61560;33.718;73.040;2022-09-06T03:08:45;14.70;;;6.32;;
73331;SDS011;61560;33.718;73.040;2022-09-06T03:11:12;9.68;;;6.57;;
73331;SDS011;61560;33.718;73.040;2022-09-06T03:13:39;13.55;;;6.65;;
73331;SDS011;61560;33.718;73.040;2022-09-06T03:16:06;10.05;;;6.63;;
73331;SDS011;61560;33.718;73.040;2022-09-06T03:18:33;13.05;;;6.57;;
73331;SDS011;61560;33.718;73.040;2022-09-06T03:21:00;12.73;;;6.25;;
73331;SDS011;61560;33.718;73.040;2022-09-06T03:23:27;12.05;;;5.95;;
73331;SDS011;61560;33.718;73.040;2022-09-06T03:25:54;12.73;;;6.57;;
73331;SDS011;61560;33.718;73.040;2022-09-06T03:28:21;11.25;;;6.72;;
73331;SDS011;61560;33.718;73.040;2022-09-06T03:30:48;10.38;;;6.95;;
73331;SDS011;61560;33.718;73.040;2022-09-06T03:33:16;10.13;;;6.55;;
73331;SDS011;61560;33.718;73.040;2022-09-06T03:35:50;10.93;;;6.57;;
73331;SDS011;61560;33.718;73.040;2022-09-06T03:38:19;13.00;;;7.00;;
73331;SDS011;61560;33.718;73.040;2022-09-06T03:40:46;9.65;;;6.35;;
73331;SDS011;61560;33.718;73.040;2022-09-06T03:43:18;13.27;;;7.00;;
73331;SDS011;61560;33.718;73.040;2022-09-06T03:45:46;12.48;;;6.50;;
73331;SDS011;61560;33.718;73.040;2022-09-06T03:48:17;11.70;;;6.63;;
73331;SDS011;61560;33.718;73.040;2022-09-06T03:50:45;8.65;;;6.13;;
73331;SDS011;61560;33.718;73.040;2022-09-06T03:53:13;11.63;;;6.60;;
73331;SDS011;61560;33.718;73.040;2022-09-06T03:55:43;8.60;;;5.60;;
73331;SDS011;61560;33.718;73.040;2022-09-06T03:58:10;10.70;;;6.32;;
73331;SDS011;61560;33.718;73.040;2022-09-06T04:00:37;11.20;;;6.32;;
73331;SDS011;61560;33.718;73.040;2022-09-06T04:03:04;13.05;;;6.47;;
73331;SDS011;61560;33.718;73.040;2022-09-06T04:05:30;9.57;;;6.28;;
73331;SDS011;61560;33.718;73.040;2022-09-06T04:07:57;8.02;;;6.63;;
73331;SDS011;61560;33.718;73.040;2022-09-06T04:10:23;9.73;;;6.28;;
73331;SDS011;61560;33.718;73.040;2022-09-06T04:12:50;9.82;;;6.47;;
73331;SDS011;61560;33.718;73.040;2022-09-06T04:15:17;11.63;;;6.50;;
73331;SDS011;61560;33.718;73.040;2022-09-06T04:17:44;9.02;;;6.45;;
73331;SDS011;61560;33.718;73.040;2022-09-06T04:20:12;13.10;;;6.68;;
73331;SDS011;61560;33.718;73.040;2022-09-06T04:22:40;8.63;;;6.32;;
73331;SDS011;61560;33.718;73.040;2022-09-06T04:25:07;7.80;;;6.00;;
73331;SDS011;61560;33.718;73.040;2022-09-06T04:27:34;9.38;;;6.00;;
73331;SDS011;61560;33.718;73.040;2022-09-06T04:30:00;10.98;;;6.18;;
73331;SDS011;61560;33.718;73.040;2022-09-06T04:32:27;10.23;;;6.65;;
73331;SDS011;61560;33.718;73.040;2022-09-06T04:34:53;10.93;;;6.82;;
73331;SDS011;61560;33.718;73.040;2022-09-06T04:37:21;13.07;;;9.13;;
73331;SDS011;61560;33.718;73.040;2022-09-06T04:39:48;13.18;;;8.70;;
73331;SDS011;61560;33.718;73.040;2022-09-06T04:42:14;13.32;;;8.55;;
73331;SDS011;61560;33.718;73.040;2022-09-06T04:44:41;10.93;;;7.60;;
73331;SDS011;61560;33.718;73.040;2022-09-06T04:47:12;12.90;;;7.47;;
73331;SDS011;61560;33.718;73.040;2022-09-06T04:49:40;9.48;;;7.05;;
73331;SDS011;61560;33.718;73.040;2022-09-06T04:52:07;10.30;;;7.40;;
73331;SDS011;61560;33.718;73.040;2022-09-06T04:54:34;13.52;;;7.57;;
73331;SDS011;61560;33.718;73.040;2022-09-06T04:57:01;12.13;;;7.85;;
73331;SDS011;61560;33.718;73.040;2022-09-06T04:59:28;11.70;;;7.75;;
73331;SDS011;61560;33.718;73.040;2022-09-06T05:01:55;13.63;;;8.43;;
73331;SDS011;61560;33.718;73.040;2022-09-06T05:04:22;9.57;;;7.72;;
73331;SDS011;61560;33.718;73.040;2022-09-06T05:06:58;13.95;;;8.68;;
73331;SDS011;61560;33.718;73.040;2022-09-06T05:09:26;13.30;;;7.32;;
73331;SDS011;61560;33.718;73.040;2022-09-06T05:11:53;15.48;;;7.82;;
73331;SDS011;61560;33.718;73.040;2022-09-06T05:14:19;13.05;;;8.27;;
73331;SDS011;61560;33.718;73.040;2022-09-06T05:16:46;10.93;;;8.00;;
73331;SDS011;61560;33.718;73.040;2022-09-06T05:19:12;10.88;;;7.13;;
73331;SDS011;61560;33.718;73.040;2022-09-06T05:21:39;13.52;;;7.38;;
73331;SDS011;61560;33.718;73.040;2022-09-06T05:24:06;12.93;;;6.82;;
73331;SDS011;61560;33.718;73.040;2022-09-06T05:26:32;13.07;;;6.65;;
73331;SDS011;61560;33.718;73.040;2022-09-06T05:28:59;10.20;;;6.50;;
73331;SDS011;61560;33.718;73.040;2022-09-06T05:31:26;10.25;;;6.30;;
73331;SDS011;61560;33.718;73.040;2022-09-06T05:33:54;9.85;;;6.30;;
73331;SDS011;61560;33.718;73.040;2022-09-06T05:36:22;10.70;;;6.72;;
73331;SDS011;61560;33.718;73.040;2022-09-06T05:38:50;11.85;;;5.88;;
73331;SDS011;61560;33.718;73.040;2022-09-06T05:41:16;10.00;;;5.88;;
73331;SDS011;61560;33.718;73.040;2022-09-06T05:43:43;8.27;;;6.30;;
73331;SDS011;61560;33.718;73.040;2022-09-06T05:46:10;14.15;;;6.53;;
73331;SDS011;61560;33.718;73.040;2022-09-06T05:48:37;9.70;;;6.85;;
73331;SDS011;61560;33.718;73.040;2022-09-06T05:51:04;14.80;;;6.93;;
73331;SDS011;61560;33.718;73.040;2022-09-06T05:53:37;8.07;;;7.15;;
73331;SDS011;61560;33.718;73.040;2022-09-06T05:56:05;13.90;;;7.25;;
73331;SDS011;61560;33.718;73.040;2022-09-06T05:58:32;9.93;;;7.20;;
73331;SDS011;61560;33.718;73.040;2022-09-06T06:03:42;9.98;;;6.53;;
73331;SDS011;61560;33.718;73.040;2022-09-06T06:06:15;10.02;;;7.32;;
73331;SDS011;61560;33.718;73.040;2022-09-06T06:08:41;11.75;;;6.88;;
73331;SDS011;61560;33.718;73.040;2022-09-06T06:11:08;10.93;;;6.43;;
73331;SDS011;61560;33.718;73.040;2022-09-06T06:13:34;12.45;;;6.40;;
73331;SDS011;61560;33.718;73.040;2022-09-06T06:16:07;9.43;;;6.00;;
73331;SDS011;61560;33.718;73.040;2022-09-06T06:18:36;12.45;;;6.50;;
73331;SDS011;61560;33.718;73.040;2022-09-06T06:21:10;8.95;;;7.13;;
73331;SDS011;61560;33.718;73.040;2022-09-06T06:23:41;11.75;;;7.30;;
73331;SDS011;61560;33.718;73.040;2022-09-06T06:26:10;10.13;;;7.20;;
73331;SDS011;61560;33.718;73.040;2022-09-06T06:28:38;9.43;;;6.97;;
73331;SDS011;61560;33.718;73.040;2022-09-06T06:31:06;10.45;;;7.18;;
73331;SDS011;61560;33.718;73.040;2022-09-06T06:33:34;12.05;;;6.93;;
73331;SDS011;61560;33.718;73.040;2022-09-06T06:36:16;13.05;;;7.40;;
73331;SDS011;61560;33.718;73.040;2022-09-06T06:38:48;14.18;;;6.60;;
73331;SDS011;61560;33.718;73.040;2022-09-06T06:41:18;11.90;;;7.55;;
73331;SDS011;61560;33.718;73.040;2022-09-06T06:43:55;13.40;;;8.30;;
73331;SDS011;61560;33.718;73.040;2022-09-06T06:46:27;16.88;;;8.48;;
73331;SDS011;61560;33.718;73.040;2022-09-06T06:48:56;16.23;;;7.72;;
73331;SDS011;61560;33.718;73.040;2022-09-06T06:51:24;15.05;;;8.38;;
73331;SDS011;61560;33.718;73.040;2022-09-06T06:53:53;13.07;;;7.78;;
73331;SDS011;61560;33.718;73.040;2022-09-06T06:58:55;12.35;;;7.78;;
73331;SDS011;61560;33.718;73.040;2022-09-06T07:01:23;13.45;;;8.13;;
73331;SDS011;61560;33.718;73.040;2022-09-06T07:03:51;14.68;;;8.77;;
73331;SDS011;61560;33.718;73.040;2022-09-06T07:06:19;15.05;;;9.55;;
73331;SDS011;61560;33.718;73.040;2022-09-06T07:08:46;20.00;;;9.80;;
73331;SDS011;61560;33.718;73.040;2022-09-06T07:11:14;13.50;;;9.02;;
73331;SDS011;61560;33.718;73.040;2022-09-06T07:13:43;18.17;;;9.65;;
73331;SDS011;61560;33.718;73.040;2022-09-06T07:16:13;18.60;;;9.65;;
73331;SDS011;61560;33.718;73.040;2022-09-06T07:18:44;16.75;;;9.07;;
73331;SDS011;61560;33.718;73.040;2022-09-06T07:21:11;18.30;;;9.73;;
73331;SDS011;61560;33.718;73.040;2022-09-06T07:23:40;18.10;;;9.63;;
73331;SDS011;61560;33.718;73.040;2022-09-06T07:26:12;17.08;;;9.05;;
73331;SDS011;61560;33.718;73.040;2022-09-06T07:28:43;14.43;;;9.05;;
73331;SDS011;61560;33.718;73.040;2022-09-06T07:31:11;17.40;;;9.55;;
73331;SDS011;61560;33.718;73.040;2022-09-06T07:33:38;14.25;;;9.07;;
73331;SDS011;61560;33.718;73.040;2022-09-06T07:36:06;15.10;;;9.73;;
73331;SDS011;61560;33.718;73.040;2022-09-06T07:38:35;17.15;;;9.68;;
73331;SDS011;61560;33.718;73.040;2022-09-06T07:41:02;14.18;;;9.18;;
73331;SDS011;61560;33.718;73.040;2022-09-06T07:43:32;16.08;;;9.73;;
73331;SDS011;61560;33.718;73.040;2022-09-06T07:48:30;14.35;;;9.65;;
73331;SDS011;61560;33.718;73.040;2022-09-06T07:51:08;16.15;;;9.45;;
73331;SDS011;61560;33.718;73.040;2022-09-06T07:53:38;12.57;;;9.50;;
73331;SDS011;61560;33.718;73.040;2022-09-06T07:56:07;21.88;;;10.30;;
73331;SDS011;61560;33.718;73.040;2022-09-06T07:58:36;15.02;;;9.82;;
73331;SDS011;61560;33.718;73.040;2022-09-06T09:04:13;21.70;;;13.50;;
73331;SDS011;61560;33.718;73.040;2022-09-06T09:06:45;20.02;;;12.88;;
73331;SDS011;61560;33.718;73.040;2022-09-06T09:09:17;20.88;;;13.48;;
73331;SDS011;61560;33.718;73.040;2022-09-06T09:11:44;32.45;;;13.80;;
73331;SDS011;61560;33.718;73.040;2022-09-06T09:14:19;23.33;;;13.20;;
73331;SDS011;61560;33.718;73.040;2022-09-06T09:16:52;21.52;;;13.23;;
73331;SDS011;61560;33.718;73.040;2022-09-06T09:19:21;27.17;;;13.38;;
73331;SDS011;61560;33.718;73.040;2022-09-06T09:21:47;23.15;;;13.65;;
73331;SDS011;61560;33.718;73.040;2022-09-06T09:24:14;19.48;;;13.55;;
73331;SDS011;61560;33.718;73.040;2022-09-06T09:29:29;24.02;;;13.23;;
73331;SDS011;61560;33.718;73.040;2022-09-06T09:31:55;24.55;;;13.38;;
73331;SDS011;61560;33.718;73.040;2022-09-06T09:34:32;20.33;;;13.13;;
73331;SDS011;61560;33.718;73.040;2022-09-06T09:37:16;28.77;;;14.23;;
73331;SDS011;61560;33.718;73.040;2022-09-06T09:39:46;22.02;;;13.35;;
73331;SDS011;61560;33.718;73.040;2022-09-06T09:42:22;24.98;;;13.20;;
73331;SDS011;61560;33.718;73.040;2022-09-06T09:45:01;20.48;;;12.35;;
73331;SDS011;61560;33.718;73.040;2022-09-06T09:47:47;18.13;;;12.55;;
73331;SDS011;61560;33.718;73.040;2022-09-06T09:50:28;20.00;;;12.73;;
73331;SDS011;61560;33.718;73.040;2022-09-06T09:53:06;22.25;;;12.90;;
73331;SDS011;61560;33.718;73.040;2022-09-06T09:55:38;22.83;;;13.38;;
73331;SDS011;61560;33.718;73.040;2022-09-06T09:58:06;19.83;;;12.68;;
73331;SDS011;61560;33.718;73.040;2022-09-06T10:00:44;23.77;;;12.35;;
73331;SDS011;61560;33.718;73.040;2022-09-06T10:03:12;23.20;;;12.77;;
73331;SDS011;61560;33.718;73.040;2022-09-06T10:05:40;22.00;;;12.10;;
73331;SDS011;61560;33.718;73.040;2022-09-06T10:08:10;23.63;;;12.45;;
73331;SDS011;61560;33.718;73.040;2022-09-06T10:10:41;23.25;;;11.93;;
73331;SDS011;61560;33.718;73.040;2022-09-06T10:15:41;19.85;;;11.32;;
73331;SDS011;61560;33.718;73.040;2022-09-06T10:18:30;17.35;;;11.52;;
73331;SDS011;61560;33.718;73.040;2022-09-06T10:29:05;12.13;;;10.65;;
73331;SDS011;61560;33.718;73.040;2022-09-06T10:31:54;21.92;;;12.05;;
73331;SDS011;61560;33.718;73.040;2022-09-06T10:34:38;21.45;;;12.25;;
73331;SDS011;61560;33.718;73.040;2022-09-06T10:47:56;26.27;;;12.48;;
73331;SDS011;61560;33.718;73.040;2022-09-06T10:53:24;20.25;;;12.48;;
73331;SDS011;61560;33.718;73.040;2022-09-06T10:55:57;16.65;;;11.40;;
73331;SDS011;61560;33.718;73.040;2022-09-06T10:58:30;19.85;;;11.60;;
73331;SDS011;61560;33.718;73.040;2022-09-06T11:01:02;16.30;;;10.90;;
73331;SDS011;61560;33.718;73.040;2022-09-06T11:03:34;13.07;;;10.30;;
73331;SDS011;61560;33.718;73.040;2022-09-06T11:06:06;17.67;;;10.90;;
73331;SDS011;61560;33.718;73.040;2022-09-06T11:11:15;26.05;;;11.55;;
73331;SDS011;61560;33.718;73.040;2022-09-06T11:13:49;17.50;;;11.50;;
73331;SDS011;61560;33.718;73.040;2022-09-06T11:16:26;20.30;;;11.90;;
73331;SDS011;61560;33.718;73.040;2022-09-06T11:18:57;17.87;;;11.70;;
73331;SDS011;61560;33.718;73.040;2022-09-06T11:29:28;21.13;;;10.90;;
73331;SDS011;61560;33.718;73.040;2022-09-06T11:31:58;15.63;;;10.75;;
73331;SDS011;61560;33.718;73.040;2022-09-06T11:34:55;17.60;;;10.32;;
73331;SDS011;61560;33.718;73.040;2022-09-06T11:37:31;15.90;;;10.70;;
73331;SDS011;61560;33.718;73.040;2022-09-06T11:45:19;19.63;;;12.23;;
73331;SDS011;61560;33.718;73.040;2022-09-06T11:47:50;18.25;;;11.40;;
73331;SDS011;61560;33.718;73.040;2022-09-06T11:55:38;16.55;;;11.13;;
73331;SDS011;61560;33.718;73.040;2022-09-06T12:00:44;19.15;;;12.05;;
73331;SDS011;61560;33.718;73.040;2022-09-06T13:03:19;19.65;;;13.15;;
73331;SDS011;61560;33.718;73.040;2022-09-06T13:05:49;22.48;;;13.13;;
73331;SDS011;61560;33.718;73.040;2022-09-06T13:08:23;19.33;;;12.30;;
73331;SDS011;61560;33.718;73.040;2022-09-06T13:10:58;24.50;;;12.90;;
73331;SDS011;61560;33.718;73.040;2022-09-06T13:13:25;19.52;;;12.50;;
73331;SDS011;61560;33.718;73.040;2022-09-06T13:15:52;22.42;;;13.05;;
73331;SDS011;61560;33.718;73.040;2022-09-06T13:18:22;22.38;;;13.68;;
73331;SDS011;61560;33.718;73.040;2022-09-06T13:21:01;19.85;;;13.27;;
73331;SDS011;61560;33.718;73.040;2022-09-06T13:23:29;20.60;;;12.43;;
73331;SDS011;61560;33.718;73.040;2022-09-06T13:26:09;26.48;;;13.30;;
73331;SDS011;61560;33.718;73.040;2022-09-06T13:28:36;19.65;;;12.07;;
73331;SDS011;61560;33.718;73.040;2022-09-06T13:31:07;24.30;;;13.65;;
73331;SDS011;61560;33.718;73.040;2022-09-06T13:33:35;22.55;;;12.35;;
73331;SDS011;61560;33.718;73.040;2022-09-06T13:38:39;21.80;;;12.75;;
73331;SDS011;61560;33.718;73.040;2022-09-06T13:43:59;29.67;;;14.00;;
73331;SDS011;61560;33.718;73.040;2022-09-06T13:46:31;20.02;;;12.75;;
73331;SDS011;61560;33.718;73.040;2022-09-06T13:48:57;23.00;;;13.50;;
73331;SDS011;61560;33.718;73.040;2022-09-06T13:51:24;19.73;;;12.35;;
73331;SDS011;61560;33.718;73.040;2022-09-06T13:54:02;23.08;;;13.30;;
73331;SDS011;61560;33.718;73.040;2022-09-06T13:56:29;22.17;;;13.55;;
73331;SDS011;61560;33.718;73.040;2022-09-06T13:58:56;21.05;;;12.55;;
73331;SDS011;61560;33.718;73.040;2022-09-06T14:01:23;20.75;;;12.80;;
73331;SDS011;61560;33.718;73.040;2022-09-06T14:03:49;21.65;;;13.15;;
73331;SDS011;61560;33.718;73.040;2022-09-06T14:06:16;20.63;;;12.65;;
73331;SDS011;61560;33.718;73.040;2022-09-06T14:08:42;25.30;;;13.10;;
73331;SDS011;61560;33.718;73.040;2022-09-06T14:11:09;18.77;;;12.27;;
73331;SDS011;61560;33.718;73.040;2022-09-06T14:13:36;20.17;;;12.65;;
73331;SDS011;61560;33.718;73.040;2022-09-06T14:16:02;22.00;;;13.25;;
73331;SDS011;61560;33.718;73.040;2022-09-06T14:18:30;20.33;;;12.55;;
73331;SDS011;61560;33.718;73.040;2022-09-06T14:20:57;18.85;;;12.40;;
73331;SDS011;61560;33.718;73.040;2022-09-06T14:23:24;18.58;;;11.95;;
73331;SDS011;61560;33.718;73.040;2022-09-06T14:25:54;18.33;;;13.07;;
73331;SDS011;61560;33.718;73.040;2022-09-06T14:28:22;22.92;;;12.50;;
73331;SDS011;61560;33.718;73.040;2022-09-06T14:30:50;20.73;;;12.80;;
73331;SDS011;61560;33.718;73.040;2022-09-06T14:33:17;25.27;;;13.07;;
73331;SDS011;61560;33.718;73.040;2022-09-06T14:38:27;27.30;;;13.80;;
73331;SDS011;61560;33.718;73.040;2022-09-06T14:41:01;22.10;;;13.30;;
73331;SDS011;61560;33.718;73.040;2022-09-06T14:43:28;22.98;;;13.25;;
73331;SDS011;61560;33.718;73.040;2022-09-06T14:46:01;19.98;;;11.95;;
73331;SDS011;61560;33.718;73.040;2022-09-06T14:48:31;19.35;;;12.93;;
73331;SDS011;61560;33.718;73.040;2022-09-06T14:51:05;25.48;;;13.45;;
73331;SDS011;61560;33.718;73.040;2022-09-06T14:53:49;24.77;;;12.88;;
73331;SDS011;61560;33.718;73.040;2022-09-06T14:56:19;22.33;;;13.68;;
73331;SDS011;61560;33.718;73.040;2022-09-06T14:58:46;22.70;;;13.65;;
73331;SDS011;61560;33.718;73.040;2022-09-06T15:03:41;23.63;;;14.02;;
73331;SDS011;61560;33.718;73.040;2022-09-06T15:06:11;27.80;;;15.38;;
73331;SDS011;61560;33.718;73.040;2022-09-06T15:08:38;22.45;;;14.10;;
73331;SDS011;61560;33.718;73.040;2022-09-06T15:11:05;26.55;;;14.70;;
73331;SDS011;61560;33.718;73.040;2022-09-06T15:13:33;28.17;;;14.88;;
73331;SDS011;61560;33.718;73.040;2022-09-06T15:16:03;28.37;;;15.10;;
73331;SDS011;61560;33.718;73.040;2022-09-06T15:18:31;26.35;;;14.75;;
73331;SDS011;61560;33.718;73.040;2022-09-06T15:21:11;25.70;;;13.88;;
73331;SDS011;61560;33.718;73.040;2022-09-06T15:23:40;26.67;;;16.20;;
73331;SDS011;61560;33.718;73.040;2022-09-06T15:26:09;28.23;;;15.25;;
73331;SDS011;61560;33.718;73.040;2022-09-06T15:28:38;26.45;;;15.57;;
73331;SDS011;61560;33.718;73.040;2022-09-06T15:31:06;26.85;;;14.65;;
73331;SDS011;61560;33.718;73.040;2022-09-06T15:33:34;21.30;;;13.55;;
73331;SDS011;61560;33.718;73.040;2022-09-06T15:36:02;21.50;;;13.57;;
73331;SDS011;61560;33.718;73.040;2022-09-06T15:38:35;23.08;;;13.55;;
73331;SDS011;61560;33.718;73.040;2022-09-06T15:41:04;23.02;;;13.38;;
73331;SDS011;61560;33.718;73.040;2022-09-06T15:43:34;24.95;;;14.30;;
73331;SDS011;61560;33.718;73.040;2022-09-06T15:46:01;23.30;;;13.27;;
73331;SDS011;61560;33.718;73.040;2022-09-06T15:48:29;23.77;;;13.88;;
73331;SDS011;61560;33.718;73.040;2022-09-06T15:51:06;24.05;;;13.88;;
73331;SDS011;61560;33.718;73.040;2022-09-06T15:53:33;17.50;;;12.45;;
73331;SDS011;61560;33.718;73.040;2022-09-06T15:56:01;21.65;;;12.27;;
73331;SDS011;61560;33.718;73.040;2022-09-06T15:58:28;26.95;;;15.20;;
73331;SDS011;61560;33.718;73.040;2022-09-06T16:01:03;22.13;;;13.93;;
73331;SDS011;61560;33.718;73.040;2022-09-06T16:03:39;22.33;;;14.73;;
73331;SDS011;61560;33.718;73.040;2022-09-06T16:06:09;26.15;;;14.00;;
73331;SDS011;61560;33.718;73.040;2022-09-06T16:08:37;19.92;;;12.90;;
73331;SDS011;61560;33.718;73.040;2022-09-06T16:11:09;24.50;;;13.38;;
73331;SDS011;61560;33.718;73.040;2022-09-06T16:13:38;22.88;;;13.27;;
73331;SDS011;61560;33.718;73.040;2022-09-06T16:16:07;18.25;;;13.07;;
73331;SDS011;61560;33.718;73.040;2022-09-06T16:18:35;21.10;;;11.73;;
73331;SDS011;61560;33.718;73.040;2022-09-06T16:21:14;22.52;;;14.20;;
73331;SDS011;61560;33.718;73.040;2022-09-06T16:23:50;21.77;;;14.07;;
73331;SDS011;61560;33.718;73.040;2022-09-06T16:26:18;21.83;;;13.70;;
73331;SDS011;61560;33.718;73.040;2022-09-06T16:28:46;21.55;;;13.10;;
73331;SDS011;61560;33.718;73.040;2022-09-06T16:31:14;25.27;;;12.95;;
73331;SDS011;61560;33.718;73.040;2022-09-06T16:33:41;23.45;;;12.98;;
73331;SDS011;61560;33.718;73.040;2022-09-06T16:36:10;22.83;;;12.70;;
73331;SDS011;61560;33.718;73.040;2022-09-06T16:38:39;22.77;;;13.32;;
73331;SDS011;61560;33.718;73.040;2022-09-06T16:41:07;20.33;;;12.57;;
73331;SDS011;61560;33.718;73.040;2022-09-06T16:43:40;22.33;;;12.65;;
73331;SDS011;61560;33.718;73.040;2022-09-06T16:46:08;22.85;;;13.15;;
73331;SDS011;61560;33.718;73.040;2022-09-06T16:48:35;26.10;;;13.20;;
73331;SDS011;61560;33.718;73.040;2022-09-06T16:51:12;19.90;;;12.75;;
73331;SDS011;61560;33.718;73.040;2022-09-06T16:53:44;21.40;;;12.88;;
73331;SDS011;61560;33.718;73.040;2022-09-06T16:56:12;23.23;;;13.25;;
73331;SDS011;61560;33.718;73.040;2022-09-06T16:58:42;22.95;;;13.30;;
73331;SDS011;61560;33.718;73.040;2022-09-06T17:01:13;19.38;;;13.18;;
73331;SDS011;61560;33.718;73.040;2022-09-06T17:03:40;25.50;;;13.88;;
73331;SDS011;61560;33.718;73.040;2022-09-06T17:06:06;24.40;;;13.75;;
73331;SDS011;61560;33.718;73.040;2022-09-06T17:08:33;24.27;;;13.25;;
73331;SDS011;61560;33.718;73.040;2022-09-06T17:11:02;22.23;;;13.20;;
73331;SDS011;61560;33.718;73.040;2022-09-06T17:13:30;19.33;;;13.63;;
73331;SDS011;61560;33.718;73.040;2022-09-06T17:15:59;25.60;;;13.98;;
73331;SDS011;61560;33.718;73.040;2022-09-06T17:18:44;20.55;;;13.15;;
73331;SDS011;61560;33.718;73.040;2022-09-06T17:21:10;27.42;;;12.63;;
73331;SDS011;61560;33.718;73.040;2022-09-06T17:23:38;22.73;;;12.73;;
73331;SDS011;61560;33.718;73.040;2022-09-06T17:26:05;22.67;;;12.43;;
73331;SDS011;61560;33.718;73.040;2022-09-06T17:28:35;26.92;;;13.10;;
73331;SDS011;61560;33.718;73.040;2022-09-06T17:31:06;24.77;;;13.30;;
73331;SDS011;61560;33.718;73.040;2022-09-06T17:33:34;23.73;;;12.55;;
73331;SDS011;61560;33.718;73.040;2022-09-06T17:36:11;20.75;;;13.48;;
73331;SDS011;61560;33.718;73.040;2022-09-06T17:38:43;22.33;;;12.80;;
73331;SDS011;61560;33.718;73.040;2022-09-06T17:41:46;19.80;;;13.05;;
73331;SDS011;61560;33.718;73.040;2022-09-06T17:44:11;20.38;;;12.82;;
73331;SDS011;61560;33.718;73.040;2022-09-06T17:46:39;20.58;;;12.02;;
73331;SDS011;61560;33.718;73.040;2022-09-06T17:49:08;18.52;;;11.70;;
73331;SDS011;61560;33.718;73.040;2022-09-06T17:51:35;19.17;;;11.57;;
73331;SDS011;61560;33.718;73.040;2022-09-06T17:54:01;23.35;;;13.13;;
73331;SDS011;61560;33.718;73.040;2022-09-06T17:56:30;19.80;;;12.98;;
73331;SDS011;61560;33.718;73.040;2022-09-06T17:58:59;23.38;;;13.15;;
73331;SDS011;61560;33.718;73.040;2022-09-06T18:01:28;19.48;;;12.15;;
73331;SDS011;61560;33.718;73.040;2022-09-06T18:03:57;22.95;;;15.27;;
73331;SDS011;61560;33.718;73.040;2022-09-06T18:06:25;30.35;;;16.90;;
73331;SDS011;61560;33.718;73.040;2022-09-06T18:08:54;25.10;;;16.10;;
73331;SDS011;61560;33.718;73.040;2022-09-06T18:11:26;22.70;;;14.90;;
73331;SDS011;61560;33.718;73.040;2022-09-06T18:13:57;28.90;;;16.52;;
73331;SDS011;61560;33.718;73.040;2022-09-06T18:16:26;28.85;;;15.13;;